sensor_id;sensor_type;location;lat;lon;timestamp;pressure;altitude;pressure_sealevel;temperature;humidity
58821;BME280;70670;52.476;13.334;2023-08-17T00:00:07;101466.69;;;20.52;72.55
58821;BME280;70670;52.476;13.334;2023-08-17T00:02:58;101477.16;;;20.56;72.77
58821;BME280;70670;52.476;13.334;2023-08-17T00:05:25;101476.41;;;20.54;72.19
58821;BME280;70670;52.476;13.334;2023-08-17T00:07:51;101463.22;;;20.50;72.64
58821;BME280;70670;52.476;13.334;2023-08-17T00:10:17;101444.56;;;20.45;72.82
58821;BME280;70670;52.476;13.334;2023-08-17T00:12:43;101407.38;;;20.13;72.34
58821;BME280;70670;52.476;13.334;2023-08-17T00:15:09;101442.75;;;20.34;73.19
58821;BME280;70670;52.476;13.334;2023-08-17T00:17:34;101448.56;;;20.30;73.11
58821;BME280;70670;52.476;13.334;2023-08-17T00:20:00;101368.22;;;19.84;73.28
58821;BME280;70670;52.476;13.334;2023-08-17T00:22:26;101426.38;;;20.25;73.27
58821;BME280;70670;52.476;13.334;2023-08-17T00:24:51;101429.94;;;20.25;73.32
58821;BME280;70670;52.476;13.334;2023-08-17T00:27:17;101427.06;;;20.27;72.95
58821;BME280;70670;52.476;13.334;2023-08-17T00:29:42;101402.69;;;20.16;73.14
58821;BME280;70670;52.476;13.334;2023-08-17T00:32:08;101359.19;;;19.83;73.38
58821;BME280;70670;52.476;13.334;2023-08-17T00:34:34;101423.94;;;20.10;73.41
58821;BME280;70670;52.476;13.334;2023-08-17T00:37:00;101417.03;;;20.06;73.47
58821;BME280;70670;52.476;13.334;2023-08-17T00:39:25;101359.25;;;19.72;73.70
58821;BME280;70670;52.476;13.334;2023-08-17T00:41:51;101360.22;;;19.71;73.80
58821;BME280;70670;52.476;13.334;2023-08-17T00:44:17;101413.00;;;20.01;74.08
58821;BME280;70670;52.476;13.334;2023-08-17T00:46:43;101398.56;;;19.89;74.21
58821;BME280;70670;52.476;13.334;2023-08-17T00:49:09;101414.72;;;20.02;74.25
58821;BME280;70670;52.476;13.334;2023-08-17T00:51:36;101416.81;;;19.98;73.91
58821;BME280;70670;52.476;13.334;2023-08-17T00:54:01;101419.78;;;19.95;74.29
58821;BME280;70670;52.476;13.334;2023-08-17T00:56:28;101423.50;;;19.94;74.10
58821;BME280;70670;52.476;13.334;2023-08-17T00:58:55;101430.94;;;19.92;74.20
58821;BME280;70670;52.476;13.334;2023-08-17T01:01:22;101426.75;;;19.88;74.44
58821;BME280;70670;52.476;13.334;2023-08-17T01:03:48;101430.31;;;19.88;74.18
58821;BME280;70670;52.476;13.334;2023-08-17T01:06:14;101424.53;;;19.82;74.69
58821;BME280;70670;52.476;13.334;2023-08-17T01:08:40;101419.47;;;19.77;74.86
58821;BME280;70670;52.476;13.334;2023-08-17T01:11:30;101422.56;;;19.84;74.26
58821;BME280;70670;52.476;13.334;2023-08-17T01:14:15;101426.25;;;19.83;74.73
58821;BME280;70670;52.476;13.334;2023-08-17T01:17:18;101420.09;;;19.81;74.68
58821;BME280;70670;52.476;13.334;2023-08-17T01:19:47;101420.09;;;19.81;74.79
58821;BME280;70670;52.476;13.334;2023-08-17T01:22:17;101415.91;;;19.77;74.61
58821;BME280;70670;52.476;13.334;2023-08-17T01:24:46;101411.22;;;19.68;74.98
58821;BME280;70670;52.476;13.334;2023-08-17T01:27:12;101411.72;;;19.73;74.45
58821;BME280;70670;52.476;13.334;2023-08-17T01:29:37;101405.78;;;19.68;74.38
58821;BME280;70670;52.476;13.334;2023-08-17T01:35:16;101411.94;;;19.58;74.62
58821;BME280;70670;52.476;13.334;2023-08-17T01:37:45;101417.38;;;19.58;74.30
58821;BME280;70670;52.476;13.334;2023-08-17T01:40:12;101393.47;;;19.41;74.77
58821;BME280;70670;52.476;13.334;2023-08-17T01:42:39;101405.81;;;19.45;75.03
58821;BME280;70670;52.476;13.334;2023-08-17T01:45:06;101410.84;;;19.38;75.46
58821;BME280;70670;52.476;13.334;2023-08-17T01:47:32;101411.97;;;19.36;75.06
58821;BME280;70670;52.476;13.334;2023-08-17T01:49:58;101415.56;;;19.36;75.80
58821;BME280;70670;52.476;13.334;2023-08-17T01:52:27;101425.28;;;19.28;75.70
58821;BME280;70670;52.476;13.334;2023-08-17T01:54:53;101424.81;;;19.34;75.62
58821;BME280;70670;52.476;13.334;2023-08-17T01:57:19;101425.91;;;19.31;75.92
58821;BME280;70670;52.476;13.334;2023-08-17T01:59:44;101424.06;;;19.32;75.63
58821;BME280;70670;52.476;13.334;2023-08-17T02:02:10;101406.56;;;19.25;75.88
58821;BME280;70670;52.476;13.334;2023-08-17T02:04:37;101391.13;;;19.14;75.82
58821;BME280;70670;52.476;13.334;2023-08-17T02:07:03;101425.03;;;19.31;75.97
58821;BME280;70670;52.476;13.334;2023-08-17T02:09:28;101427.03;;;19.29;76.15
58821;BME280;70670;52.476;13.334;2023-08-17T02:11:54;101376.72;;;19.02;76.06
58821;BME280;70670;52.476;13.334;2023-08-17T02:14:20;101404.22;;;19.09;76.47
58821;BME280;70670;52.476;13.334;2023-08-17T02:16:45;101431.22;;;19.22;76.37
58821;BME280;70670;52.476;13.334;2023-08-17T02:19:11;101426.03;;;19.19;76.22
58821;BME280;70670;52.476;13.334;2023-08-17T02:21:37;101362.88;;;18.83;76.26
58821;BME280;70670;52.476;13.334;2023-08-17T02:24:02;101431.47;;;19.19;76.25
58821;BME280;70670;52.476;13.334;2023-08-17T02:26:29;101434.31;;;19.17;76.22
58821;BME280;70670;52.476;13.334;2023-08-17T02:28:55;101427.41;;;19.13;76.54
58821;BME280;70670;52.476;13.334;2023-08-17T02:31:21;101423.06;;;19.10;76.67
58821;BME280;70670;52.476;13.334;2023-08-17T02:33:46;101349.81;;;18.77;76.33
58821;BME280;70670;52.476;13.334;2023-08-17T02:36:12;101412.47;;;19.07;76.80
58821;BME280;70670;52.476;13.334;2023-08-17T02:38:37;101402.22;;;19.11;76.55
58821;BME280;70670;52.476;13.334;2023-08-17T02:41:03;101400.75;;;19.07;76.74
58821;BME280;70670;52.476;13.334;2023-08-17T02:43:29;101405.31;;;19.06;76.99
58821;BME280;70670;52.476;13.334;2023-08-17T02:45:54;101397.66;;;19.00;77.46
58821;BME280;70670;52.476;13.334;2023-08-17T02:48:20;101393.97;;;19.01;77.04
58821;BME280;70670;52.476;13.334;2023-08-17T02:50:46;101400.88;;;18.94;76.84
58821;BME280;70670;52.476;13.334;2023-08-17T02:53:11;101396.31;;;18.95;77.03
58821;BME280;70670;52.476;13.334;2023-08-17T02:55:37;101392.38;;;18.99;76.94
58821;BME280;70670;52.476;13.334;2023-08-17T02:58:02;101389.41;;;18.90;76.73
58821;BME280;70670;52.476;13.334;2023-08-17T03:00:28;101402.59;;;18.95;76.99
58821;BME280;70670;52.476;13.334;2023-08-17T03:02:54;101403.59;;;18.94;76.85
58821;BME280;70670;52.476;13.334;2023-08-17T03:05:20;101393.97;;;18.90;77.13
58821;BME280;70670;52.476;13.334;2023-08-17T03:07:45;101409.38;;;18.89;76.64
58821;BME280;70670;52.476;13.334;2023-08-17T03:10:11;101398.41;;;18.91;77.04
58821;BME280;70670;52.476;13.334;2023-08-17T03:12:38;101376.91;;;18.77;76.70
58821;BME280;70670;52.476;13.334;2023-08-17T03:15:05;101381.47;;;18.76;76.38
58821;BME280;70670;52.476;13.334;2023-08-17T03:17:31;101385.06;;;18.88;76.39
58821;BME280;70670;52.476;13.334;2023-08-17T03:19:57;101373.34;;;18.76;76.54
58821;BME280;70670;52.476;13.334;2023-08-17T03:22:25;101393.72;;;18.93;76.21
58821;BME280;70670;52.476;13.334;2023-08-17T03:24:51;101392.97;;;18.91;76.20
58821;BME280;70670;52.476;13.334;2023-08-17T03:27:16;101388.31;;;18.93;75.96
58821;BME280;70670;52.476;13.334;2023-08-17T03:29:42;101382.59;;;18.96;76.15
58821;BME280;70670;52.476;13.334;2023-08-17T03:32:08;101389.41;;;19.02;75.82
58821;BME280;70670;52.476;13.334;2023-08-17T03:34:33;101372.13;;;18.91;75.95
58821;BME280;70670;52.476;13.334;2023-08-17T03:36:59;101382.59;;;18.96;75.67
58821;BME280;70670;52.476;13.334;2023-08-17T03:39:25;101380.16;;;18.93;75.62
58821;BME280;70670;52.476;13.334;2023-08-17T03:41:50;101401.59;;;18.96;75.33
58821;BME280;70670;52.476;13.334;2023-08-17T03:44:16;101390.25;;;18.91;75.46
58821;BME280;70670;52.476;13.334;2023-08-17T03:46:42;101395.81;;;18.89;75.22
58821;BME280;70670;52.476;13.334;2023-08-17T03:49:07;101386.81;;;18.89;75.01
58821;BME280;70670;52.476;13.334;2023-08-17T03:51:33;101387.41;;;18.92;75.37
58821;BME280;70670;52.476;13.334;2023-08-17T03:53:59;101387.69;;;18.89;75.42
58821;BME280;70670;52.476;13.334;2023-08-17T03:56:24;101385.94;;;18.88;74.84
58821;BME280;70670;52.476;13.334;2023-08-17T03:58:50;101383.34;;;18.87;75.02
58821;BME280;70670;52.476;13.334;2023-08-17T04:01:16;101325.47;;;18.53;74.79
58821;BME280;70670;52.476;13.334;2023-08-17T04:03:41;101382.25;;;18.89;74.54
58821;BME280;70670;52.476;13.334;2023-08-17T04:06:08;101383.34;;;18.87;74.50
58821;BME280;70670;52.476;13.334;2023-08-17T04:08:36;101382.25;;;18.89;74.37
58821;BME280;70670;52.476;13.334;2023-08-17T04:11:03;101380.63;;;18.87;74.40
58821;BME280;70670;52.476;13.334;2023-08-17T04:13:29;101317.97;;;18.56;74.38
58821;BME280;70670;52.476;13.334;2023-08-17T04:15:54;101363.13;;;18.91;73.99
58821;BME280;70670;52.476;13.334;2023-08-17T04:18:20;101316.25;;;18.66;74.17
58821;BME280;70670;52.476;13.334;2023-08-17T04:20:46;101376.94;;;18.99;73.96
58821;BME280;70670;52.476;13.334;2023-08-17T04:23:11;101327.53;;;18.73;73.24
58821;BME280;70670;52.476;13.334;2023-08-17T04:25:37;101377.69;;;19.01;73.13
58821;BME280;70670;52.476;13.334;2023-08-17T04:28:03;101370.44;;;19.02;72.96
58821;BME280;70670;52.476;13.334;2023-08-17T04:30:28;101315.16;;;18.69;73.29
58821;BME280;70670;52.476;13.334;2023-08-17T04:32:54;101366.34;;;18.96;73.09
58821;BME280;70670;52.476;13.334;2023-08-17T04:35:20;101372.16;;;19.03;73.32
58821;BME280;70670;52.476;13.334;2023-08-17T04:37:46;101368.09;;;18.97;72.78
58821;BME280;70670;52.476;13.334;2023-08-17T04:40:12;101351.06;;;18.95;72.72
58821;BME280;70670;52.476;13.334;2023-08-17T04:42:38;101367.34;;;19.06;72.34
58821;BME280;70670;52.476;13.334;2023-08-17T04:45:04;101369.56;;;19.01;72.27
58821;BME280;70670;52.476;13.334;2023-08-17T04:47:30;101372.53;;;19.09;71.95
58821;BME280;70670;52.476;13.334;2023-08-17T04:49:55;101375.09;;;19.11;71.91
58821;BME280;70670;52.476;13.334;2023-08-17T04:52:21;101379.44;;;19.13;71.81
58821;BME280;70670;52.476;13.334;2023-08-17T04:54:46;101378.19;;;19.17;71.49
58821;BME280;70670;52.476;13.334;2023-08-17T04:57:12;101383.25;;;19.11;70.90
58821;BME280;70670;52.476;13.334;2023-08-17T04:59:38;101382.50;;;19.09;71.30
58821;BME280;70670;52.476;13.334;2023-08-17T05:02:04;101381.91;;;19.05;70.90
58821;BME280;70670;52.476;13.334;2023-08-17T05:04:30;101373.13;;;19.13;71.21
58821;BME280;70670;52.476;13.334;2023-08-17T05:06:56;101375.72;;;19.14;71.00
58821;BME280;70670;52.476;13.334;2023-08-17T05:09:22;101378.91;;;19.08;71.06
58821;BME280;70670;52.476;13.334;2023-08-17T05:11:48;101389.41;;;19.13;70.69
58821;BME280;70670;52.476;13.334;2023-08-17T05:14:13;101395.31;;;19.07;70.54
58821;BME280;70670;52.476;13.334;2023-08-17T05:16:39;101394.47;;;19.06;70.87
58821;BME280;70670;52.476;13.334;2023-08-17T05:19:04;101397.81;;;19.10;70.45
58821;BME280;70670;52.476;13.334;2023-08-17T05:21:30;101388.03;;;19.07;70.65
58821;BME280;70670;52.476;13.334;2023-08-17T05:23:56;101388.19;;;19.06;70.63
58821;BME280;70670;52.476;13.334;2023-08-17T05:26:22;101385.34;;;19.07;71.06
58821;BME280;70670;52.476;13.334;2023-08-17T05:28:47;101391.00;;;19.04;70.79
58821;BME280;70670;52.476;13.334;2023-08-17T05:31:13;101393.22;;;18.99;70.97
58821;BME280;70670;52.476;13.334;2023-08-17T05:33:39;101318.97;;;18.66;71.48
58821;BME280;70670;52.476;13.334;2023-08-17T05:36:07;101382.75;;;19.06;71.00
58821;BME280;70670;52.476;13.334;2023-08-17T05:38:32;101399.28;;;19.14;71.07
58821;BME280;70670;52.476;13.334;2023-08-17T05:40:59;101397.56;;;19.13;70.37
58821;BME280;70670;52.476;13.334;2023-08-17T05:43:25;101390.75;;;19.07;70.58
58821;BME280;70670;52.476;13.334;2023-08-17T05:45:50;101400.75;;;19.18;70.31
58821;BME280;70670;52.476;13.334;2023-08-17T05:48:18;101408.28;;;19.14;70.47
58821;BME280;70670;52.476;13.334;2023-08-17T05:50:44;101413.84;;;19.13;70.29
58821;BME280;70670;52.476;13.334;2023-08-17T05:53:10;101448.47;;;19.32;70.58
58821;BME280;70670;52.476;13.334;2023-08-17T05:55:36;101438.59;;;19.20;70.16
58821;BME280;70670;52.476;13.334;2023-08-17T05:58:02;101483.44;;;19.36;70.29
58821;BME280;70670;52.476;13.334;2023-08-17T06:00:29;101490.41;;;19.28;69.95
58821;BME280;70670;52.476;13.334;2023-08-17T06:02:55;101440.44;;;18.85;70.69
58821;BME280;70670;52.476;13.334;2023-08-17T06:05:27;101517.31;;;19.20;71.32
58821;BME280;70670;52.476;13.334;2023-08-17T06:07:57;101487.06;;;19.02;71.60
58821;BME280;70670;52.476;13.334;2023-08-17T06:10:23;101502.03;;;19.19;72.01
58821;BME280;70670;52.476;13.334;2023-08-17T06:12:54;101499.81;;;19.12;71.83
58821;BME280;70670;52.476;13.334;2023-08-17T06:15:20;101489.91;;;19.11;72.02
58821;BME280;70670;52.476;13.334;2023-08-17T06:17:46;101495.34;;;19.11;72.31
58821;BME280;70670;52.476;13.334;2023-08-17T06:20:12;101478.06;;;19.01;72.56
58821;BME280;70670;52.476;13.334;2023-08-17T06:22:37;101421.25;;;18.64;72.87
58821;BME280;70670;52.476;13.334;2023-08-17T06:25:04;101484.81;;;18.96;72.96
58821;BME280;70670;52.476;13.334;2023-08-17T06:27:31;101485.00;;;19.05;72.86
58821;BME280;70670;52.476;13.334;2023-08-17T06:29:57;101483.22;;;19.04;73.16
58821;BME280;70670;52.476;13.334;2023-08-17T06:32:22;101411.44;;;18.75;73.30
58821;BME280;70670;52.476;13.334;2023-08-17T06:34:48;101439.25;;;19.01;73.37
58821;BME280;70670;52.476;13.334;2023-08-17T06:37:14;101420.13;;;19.02;72.97
58821;BME280;70670;52.476;13.334;2023-08-17T06:39:40;101457.50;;;19.32;72.59
58821;BME280;70670;52.476;13.334;2023-08-17T06:42:05;101388.56;;;19.12;72.93
58821;BME280;70670;52.476;13.334;2023-08-17T06:44:31;101387.81;;;19.22;72.79
58821;BME280;70670;52.476;13.334;2023-08-17T06:46:57;101398.66;;;19.33;72.70
58821;BME280;70670;52.476;13.334;2023-08-17T06:49:24;101448.25;;;19.69;72.25
58821;BME280;70670;52.476;13.334;2023-08-17T06:51:50;101434.66;;;19.80;72.40
58821;BME280;70670;52.476;13.334;2023-08-17T06:54:16;101453.91;;;19.88;72.27
58821;BME280;70670;52.476;13.334;2023-08-17T06:56:41;101433.03;;;19.88;72.02
58821;BME280;70670;52.476;13.334;2023-08-17T06:59:07;101449.88;;;20.03;71.29
58821;BME280;70670;52.476;13.334;2023-08-17T07:01:32;101439.63;;;20.07;71.35
58821;BME280;70670;52.476;13.334;2023-08-17T07:03:58;101377.25;;;19.73;71.06
58821;BME280;70670;52.476;13.334;2023-08-17T07:06:24;101436.56;;;20.11;71.71
58821;BME280;70670;52.476;13.334;2023-08-17T07:08:50;101431.19;;;20.21;71.56
58821;BME280;70670;52.476;13.334;2023-08-17T07:11:18;101378.28;;;20.04;71.20
58821;BME280;70670;52.476;13.334;2023-08-17T07:13:44;101446.81;;;20.40;70.70
58821;BME280;70670;52.476;13.334;2023-08-17T07:16:09;101408.34;;;20.24;69.98
58821;BME280;70670;52.476;13.334;2023-08-17T07:18:36;101441.81;;;20.56;69.27
58821;BME280;70670;52.476;13.334;2023-08-17T07:21:02;101447.00;;;20.59;69.47
58821;BME280;70670;52.476;13.334;2023-08-17T07:23:29;101446.13;;;20.59;68.53
58821;BME280;70670;52.476;13.334;2023-08-17T07:25:55;101441.81;;;20.56;68.48
58821;BME280;70670;52.476;13.334;2023-08-17T07:28:21;101443.28;;;20.60;69.38
58821;BME280;70670;52.476;13.334;2023-08-17T07:30:46;101444.53;;;20.56;68.58
58821;BME280;70670;52.476;13.334;2023-08-17T07:33:12;101436.63;;;20.53;69.22
58821;BME280;70670;52.476;13.334;2023-08-17T07:35:37;101421.94;;;20.45;69.09
58821;BME280;70670;52.476;13.334;2023-08-17T07:38:03;101438.84;;;20.48;68.32
58821;BME280;70670;52.476;13.334;2023-08-17T07:40:29;101438.34;;;20.54;68.71
58821;BME280;70670;52.476;13.334;2023-08-17T07:42:55;101438.09;;;20.57;69.12
58821;BME280;70670;52.476;13.334;2023-08-17T07:45:20;101432.41;;;20.60;69.30
58821;BME280;70670;52.476;13.334;2023-08-17T07:47:46;101366.56;;;20.25;68.81
58821;BME280;70670;52.476;13.334;2023-08-17T07:50:11;101426.97;;;20.60;68.96
58821;BME280;70670;52.476;13.334;2023-08-17T07:52:37;101420.50;;;20.61;69.21
58821;BME280;70670;52.476;13.334;2023-08-17T07:55:03;101360.31;;;20.34;68.47
58821;BME280;70670;52.476;13.334;2023-08-17T07:57:29;101417.88;;;20.71;68.38
58821;BME280;70670;52.476;13.334;2023-08-17T07:59:54;101423.91;;;20.75;67.94
58821;BME280;70670;52.476;13.334;2023-08-17T08:02:20;101418.25;;;20.67;67.50
58821;BME280;70670;52.476;13.334;2023-08-17T08:04:45;101420.97;;;20.67;67.80
58821;BME280;70670;52.476;13.334;2023-08-17T08:07:11;101383.50;;;20.49;68.00
58821;BME280;70670;52.476;13.334;2023-08-17T08:09:37;101424.19;;;20.72;67.68
58821;BME280;70670;52.476;13.334;2023-08-17T08:12:03;101410.88;;;20.78;67.19
58821;BME280;70670;52.476;13.334;2023-08-17T08:14:28;101401.78;;;20.89;67.55
58821;BME280;70670;52.476;13.334;2023-08-17T08:16:55;101397.72;;;21.04;66.83
58821;BME280;70670;52.476;13.334;2023-08-17T08:19:20;101385.75;;;21.17;66.31
58821;BME280;70670;52.476;13.334;2023-08-17T08:21:46;101396.19;;;21.42;66.40
58821;BME280;70670;52.476;13.334;2023-08-17T08:24:11;101386.78;;;21.66;65.16
58821;BME280;70670;52.476;13.334;2023-08-17T08:26:37;101346.91;;;21.65;64.72
58821;BME280;70670;52.476;13.334;2023-08-17T08:29:03;101380.09;;;22.08;64.53
58821;BME280;70670;52.476;13.334;2023-08-17T08:31:29;101365.91;;;22.15;64.12
58821;BME280;70670;52.476;13.334;2023-08-17T08:33:54;101358.84;;;22.12;64.13
58821;BME280;70670;52.476;13.334;2023-08-17T08:36:20;101375.63;;;22.07;63.97
58821;BME280;70670;52.476;13.334;2023-08-17T08:38:46;101364.75;;;21.98;64.27
58821;BME280;70670;52.476;13.334;2023-08-17T08:41:12;101356.25;;;21.81;65.33
58821;BME280;70670;52.476;13.334;2023-08-17T08:43:38;101352.66;;;21.71;66.08
58821;BME280;70670;52.476;13.334;2023-08-17T08:46:04;101296.16;;;21.34;66.26
58821;BME280;70670;52.476;13.334;2023-08-17T08:48:31;101364.97;;;21.56;66.85
58821;BME280;70670;52.476;13.334;2023-08-17T08:50:59;101362.78;;;21.50;67.28
58821;BME280;70670;52.476;13.334;2023-08-17T08:53:32;101365.81;;;21.56;67.44
58821;BME280;70670;52.476;13.334;2023-08-17T08:56:02;101312.66;;;21.12;68.08
58821;BME280;70670;52.476;13.334;2023-08-17T08:58:29;101368.03;;;21.32;68.74
58821;BME280;70670;52.476;13.334;2023-08-17T09:00:57;101358.63;;;21.36;68.94
58821;BME280;70670;52.476;13.334;2023-08-17T09:03:23;101360.69;;;21.23;69.70
58821;BME280;70670;52.476;13.334;2023-08-17T09:05:50;101354.78;;;21.18;69.46
58821;BME280;70670;52.476;13.334;2023-08-17T09:08:24;101349.91;;;21.11;69.63
58821;BME280;70670;52.476;13.334;2023-08-17T09:10:51;101317.19;;;20.92;69.99
58821;BME280;70670;52.476;13.334;2023-08-17T09:13:16;101349.66;;;21.15;69.99
58821;BME280;70670;52.476;13.334;2023-08-17T09:15:42;101342.34;;;21.15;69.97
58821;BME280;70670;52.476;13.334;2023-08-17T09:18:08;101350.94;;;21.30;70.46
58821;BME280;70670;52.476;13.334;2023-08-17T09:20:36;101323.88;;;21.28;69.57
58821;BME280;70670;52.476;13.334;2023-08-17T09:23:03;101347.63;;;21.47;69.71
58821;BME280;70670;52.476;13.334;2023-08-17T09:25:31;101369.41;;;21.57;69.28
58821;BME280;70670;52.476;13.334;2023-08-17T09:27:57;101355.78;;;21.57;69.57
58821;BME280;70670;52.476;13.334;2023-08-17T09:30:23;101357.00;;;21.74;69.44
58821;BME280;70670;52.476;13.334;2023-08-17T09:32:48;101359.84;;;21.72;68.96
58821;BME280;70670;52.476;13.334;2023-08-17T09:35:15;101357.84;;;21.74;68.64
58821;BME280;70670;52.476;13.334;2023-08-17T09:37:40;101354.66;;;21.59;69.12
58821;BME280;70670;52.476;13.334;2023-08-17T09:40:06;101355.09;;;21.65;69.80
58821;BME280;70670;52.476;13.334;2023-08-17T09:42:34;101313.78;;;21.50;69.93
58821;BME280;70670;52.476;13.334;2023-08-17T09:45:00;101351.53;;;21.74;70.08
58821;BME280;70670;52.476;13.334;2023-08-17T09:47:26;101353.25;;;21.75;70.16
58821;BME280;70670;52.476;13.334;2023-08-17T09:49:53;101359.84;;;21.92;69.93
58821;BME280;70670;52.476;13.334;2023-08-17T09:52:19;101352.41;;;21.94;69.39
58821;BME280;70670;52.476;13.334;2023-08-17T09:54:46;101333.16;;;21.76;69.15
58821;BME280;70670;52.476;13.334;2023-08-17T09:57:13;101301.34;;;21.67;69.42
58821;BME280;70670;52.476;13.334;2023-08-17T09:59:39;101349.81;;;21.92;69.30
58821;BME280;70670;52.476;13.334;2023-08-17T10:02:14;101349.38;;;21.97;69.36
58821;BME280;70670;52.476;13.334;2023-08-17T10:04:44;101342.94;;;21.88;69.26
58821;BME280;70670;52.476;13.334;2023-08-17T10:07:12;101339.19;;;21.89;68.92
58821;BME280;70670;52.476;13.334;2023-08-17T10:09:42;101318.09;;;21.72;69.26
58821;BME280;70670;52.476;13.334;2023-08-17T10:12:15;101293.59;;;21.62;68.88
58821;BME280;70670;52.476;13.334;2023-08-17T10:14:49;101342.94;;;21.88;69.45
58821;BME280;70670;52.476;13.334;2023-08-17T10:17:24;101345.66;;;21.88;69.23
58821;BME280;70670;52.476;13.334;2023-08-17T10:19:53;101298.47;;;21.68;69.17
58821;BME280;70670;52.476;13.334;2023-08-17T10:22:48;101348.09;;;22.01;69.59
58821;BME280;70670;52.476;13.334;2023-08-17T10:25:18;101350.72;;;22.22;69.18
58821;BME280;70670;52.476;13.334;2023-08-17T10:27:45;101349.53;;;22.24;68.71
58821;BME280;70670;52.476;13.334;2023-08-17T10:30:11;101340.47;;;22.43;67.97
58821;BME280;70670;52.476;13.334;2023-08-17T10:32:38;101333.72;;;22.57;67.84
58821;BME280;70670;52.476;13.334;2023-08-17T10:35:04;101330.22;;;22.65;67.32
58821;BME280;70670;52.476;13.334;2023-08-17T10:37:31;101333.41;;;22.60;67.70
58821;BME280;70670;52.476;13.334;2023-08-17T10:39:57;101338.13;;;22.68;67.93
58821;BME280;70670;52.476;13.334;2023-08-17T10:42:32;101338.97;;;22.68;67.25
58821;BME280;70670;52.476;13.334;2023-08-17T10:44:59;101321.91;;;22.56;67.85
58821;BME280;70670;52.476;13.334;2023-08-17T10:47:29;101340.09;;;22.85;67.44
58821;BME280;70670;52.476;13.334;2023-08-17T10:50:20;101342.22;;;23.01;67.16
58821;BME280;70670;52.476;13.334;2023-08-17T10:52:48;101288.81;;;22.79;66.63
58821;BME280;70670;52.476;13.334;2023-08-17T10:55:14;101325.22;;;23.07;66.55
58821;BME280;70670;52.476;13.334;2023-08-17T10:57:43;101341.56;;;23.17;66.89
58821;BME280;70670;52.476;13.334;2023-08-17T11:00:16;101333.28;;;23.09;66.61
58821;BME280;70670;52.476;13.334;2023-08-17T11:02:51;101326.22;;;23.06;66.95
58821;BME280;70670;52.476;13.334;2023-08-17T11:05:34;101275.47;;;22.76;66.78
58821;BME280;70670;52.476;13.334;2023-08-17T11:07:59;101327.81;;;23.09;67.01
58821;BME280;70670;52.476;13.334;2023-08-17T11:12:53;101325.56;;;23.22;66.89
58821;BME280;70670;52.476;13.334;2023-08-17T11:15:24;101317.69;;;23.19;66.58
58821;BME280;70670;52.476;13.334;2023-08-17T11:17:49;101328.41;;;23.30;66.91
58821;BME280;70670;52.476;13.334;2023-08-17T11:20:15;101335.38;;;23.42;66.61
58821;BME280;70670;52.476;13.334;2023-08-17T11:22:41;101333.75;;;23.49;66.27
58821;BME280;70670;52.476;13.334;2023-08-17T11:25:07;101332.69;;;23.60;65.92
58821;BME280;70670;52.476;13.334;2023-08-17T11:27:33;101310.66;;;23.62;65.71
58821;BME280;70670;52.476;13.334;2023-08-17T11:29:59;101331.38;;;23.82;65.39
58821;BME280;70670;52.476;13.334;2023-08-17T11:32:24;101336.69;;;23.84;65.23
58821;BME280;70670;52.476;13.334;2023-08-17T11:34:51;101326.22;;;23.79;65.58
58821;BME280;70670;52.476;13.334;2023-08-17T11:37:17;101328.81;;;23.80;65.74
58821;BME280;70670;52.476;13.334;2023-08-17T11:39:43;101321.41;;;23.73;66.21
58821;BME280;70670;52.476;13.334;2023-08-17T11:42:08;101287.94;;;23.61;65.58
58821;BME280;70670;52.476;13.334;2023-08-17T11:44:34;101309.81;;;23.79;65.59
58821;BME280;70670;52.476;13.334;2023-08-17T11:46:59;101261.31;;;23.45;65.92
58821;BME280;70670;52.476;13.334;2023-08-17T11:49:25;101309.59;;;23.90;65.81
58821;BME280;70670;52.476;13.334;2023-08-17T11:51:51;101316.84;;;23.99;65.49
58821;BME280;70670;52.476;13.334;2023-08-17T11:54:17;101306.84;;;24.08;65.16
58821;BME280;70670;52.476;13.334;2023-08-17T11:56:42;101261.84;;;24.02;64.86
58821;BME280;70670;52.476;13.334;2023-08-17T11:59:13;101311.84;;;24.57;64.67
58821;BME280;70670;52.476;13.334;2023-08-17T12:01:43;101316.13;;;24.85;62.96
58821;BME280;70670;52.476;13.334;2023-08-17T12:04:09;101310.72;;;25.01;62.91
58821;BME280;70670;52.476;13.334;2023-08-17T12:06:36;101309.34;;;25.06;61.94
58821;BME280;70670;52.476;13.334;2023-08-17T12:09:07;101316.25;;;25.10;62.57
58821;BME280;70670;52.476;13.334;2023-08-17T12:11:33;101295.91;;;25.12;61.81
58821;BME280;70670;52.476;13.334;2023-08-17T12:13:59;101298.31;;;25.15;62.53
58821;BME280;70670;52.476;13.334;2023-08-17T12:16:24;101296.47;;;25.24;61.58
58821;BME280;70670;52.476;13.334;2023-08-17T12:18:51;101288.72;;;25.11;61.75
58821;BME280;70670;52.476;13.334;2023-08-17T12:21:22;101301.19;;;25.14;62.46
58821;BME280;70670;52.476;13.334;2023-08-17T12:23:48;101286.38;;;24.98;62.45
58821;BME280;70670;52.476;13.334;2023-08-17T12:26:21;101288.81;;;25.01;62.54
58821;BME280;70670;52.476;13.334;2023-08-17T12:28:47;101291.88;;;24.98;62.76
58821;BME280;70670;52.476;13.334;2023-08-17T12:31:14;101290.47;;;24.94;63.05
58821;BME280;70670;52.476;13.334;2023-08-17T12:33:39;101293.72;;;24.90;63.12
58821;BME280;70670;52.476;13.334;2023-08-17T12:36:05;101286.22;;;24.92;63.32
58821;BME280;70670;52.476;13.334;2023-08-17T12:38:32;101282.44;;;24.93;63.44
58821;BME280;70670;52.476;13.334;2023-08-17T12:40:57;101283.00;;;25.05;63.32
58821;BME280;70670;52.476;13.334;2023-08-17T12:43:23;101282.56;;;25.17;63.00